Eagle Mills, New York
Current Conditions -  °F | °C
As of 11:51 PM on Friday 19 Dec 2014 (Local Time) from KALB Reporting Station
Overcast Overcast  
Wind Chill: 19°   Ceiling: 2300
Heat Index: 27°   Visibility: 10mi
Dew Point: 18°   Wind: 7mph
Humidity: 69%   Direction: 310°NW
Pressure: 30.22"   Gusts: NA
Location:  42.7478°N, 73.6049°W
Report Text: KALB 200451Z 31006KT 10SM OVC023 M03/M08 A3022 RMK AO2 SLP238 T10281078 400061028
Loading
Personal Weather Stations






























Interactive Weather Map New forecast layout! Learn more

10-Day Weather Forecast

Advertisements
Track Severe Weather on mobile